createdAt,value
2022-12-15T00:02:35.703Z,2.67
2022-12-15T00:05:22.763Z,2.53
2022-12-15T00:08:08.774Z,2.54
2022-12-15T00:10:54.816Z,2.50
2022-12-15T00:13:41.302Z,2.48
2022-12-15T00:16:27.728Z,2.45
2022-12-15T00:19:13.770Z,2.53
2022-12-15T00:21:59.753Z,2.51
2022-12-15T00:24:49.677Z,2.52
2022-12-15T00:27:35.844Z,2.60
2022-12-15T00:30:25.420Z,2.42
2022-12-15T00:33:11.310Z,2.37
2022-12-15T00:35:57.075Z,2.31
2022-12-15T00:38:45.709Z,2.20
2022-12-15T00:41:17.859Z,1.99
2022-12-15T00:43:45.828Z,1.98
2022-12-15T00:46:32.566Z,1.83
2022-12-15T00:49:00.276Z,1.88
2022-12-15T00:51:46.408Z,1.87
2022-12-15T00:54:32.192Z,1.86
2022-12-15T00:57:18.089Z,1.92
2022-12-15T01:00:03.977Z,1.92
2022-12-15T01:02:50.211Z,1.84
2022-12-15T01:05:35.864Z,1.89
2022-12-15T01:08:21.776Z,1.94
2022-12-15T01:11:07.577Z,2.03
2022-12-15T01:13:53.377Z,1.85
2022-12-15T01:16:39.356Z,1.88
2022-12-15T01:19:26.885Z,1.80
2022-12-15T01:21:54.257Z,1.74
2022-12-15T01:24:21.658Z,1.68
2022-12-15T01:26:49.087Z,1.58
2022-12-15T01:29:16.483Z,1.67
2022-12-15T01:31:44.084Z,1.79
2022-12-15T01:34:11.544Z,1.85
2022-12-15T01:36:41.845Z,1.91
2022-12-15T01:39:09.242Z,1.99
2022-12-15T01:41:36.572Z,1.97
2022-12-15T01:44:24.572Z,2.02
2022-12-15T01:46:55.330Z,1.98
2022-12-15T01:49:29.400Z,2.06
2022-12-15T01:52:00.373Z,2.03
2022-12-15T01:54:40.787Z,2.08
2022-12-15T01:57:13.987Z,2.16
2022-12-15T01:59:50.771Z,2.20
2022-12-15T02:02:21.434Z,2.29
2022-12-15T02:04:51.629Z,2.36
2022-12-15T02:07:19.773Z,2.42
2022-12-15T02:09:52.729Z,2.41
2022-12-15T02:12:27.084Z,2.51
2022-12-15T02:15:17.434Z,2.47
2022-12-15T02:17:57.778Z,2.49
2022-12-15T02:20:53.283Z,2.51
2022-12-15T02:23:39.173Z,2.51
2022-12-15T02:26:25.427Z,2.42
2022-12-15T02:29:24.273Z,2.39
2022-12-15T02:32:31.177Z,2.46
2022-12-15T02:35:06.790Z,2.49
2022-12-15T02:37:39.677Z,2.53
2022-12-15T02:40:10.022Z,2.50
2022-12-15T02:42:43.682Z,2.47
2022-12-15T02:45:16.820Z,2.49
2022-12-15T02:47:54.157Z,2.62
2022-12-15T02:50:52.328Z,2.63
2022-12-15T02:53:29.047Z,2.57
2022-12-15T02:56:05.627Z,2.62
2022-12-15T02:59:02.863Z,2.65
2022-12-15T03:01:36.476Z,2.74
2022-12-15T03:04:06.951Z,2.63
2022-12-15T03:06:34.365Z,2.59
2022-12-15T03:09:20.080Z,2.62
2022-12-15T03:11:49.476Z,2.61
2022-12-15T03:14:17.916Z,2.63
2022-12-15T03:16:45.329Z,2.58
2022-12-15T03:19:12.735Z,2.57
2022-12-15T03:21:40.325Z,2.53
2022-12-15T03:24:07.971Z,2.47
2022-12-15T03:26:35.721Z,2.50
2022-12-15T03:29:03.515Z,2.44
2022-12-15T03:31:31.027Z,2.50
2022-12-15T03:33:58.432Z,2.59
2022-12-15T03:36:25.731Z,2.58
2022-12-15T03:38:53.065Z,2.51
2022-12-15T03:41:20.404Z,2.47
2022-12-15T03:43:49.694Z,2.37
2022-12-15T03:46:17.543Z,2.40
2022-12-15T03:48:44.904Z,2.46
2022-12-15T03:51:12.267Z,2.38
2022-12-15T03:53:39.576Z,2.45
2022-12-15T03:56:07.213Z,2.51
2022-12-15T03:58:34.537Z,2.55
2022-12-15T04:01:12.990Z,2.45
2022-12-15T04:03:40.466Z,2.43
2022-12-15T04:06:08.421Z,2.54
2022-12-15T04:08:35.789Z,2.59
2022-12-15T04:11:03.453Z,2.62
2022-12-15T04:13:31.059Z,2.63
2022-12-15T04:16:02.196Z,2.64
2022-12-15T04:18:29.928Z,2.55
2022-12-15T04:20:57.475Z,2.62
2022-12-15T04:23:24.974Z,2.70
2022-12-15T04:26:11.160Z,2.65
2022-12-15T04:28:57.142Z,2.82
2022-12-15T04:31:52.913Z,2.82
2022-12-15T04:34:42.003Z,2.87
2022-12-15T04:37:30.365Z,2.84
2022-12-15T04:40:18.330Z,2.77
2022-12-15T04:43:06.988Z,2.68
2022-12-15T04:45:55.931Z,2.68
2022-12-15T04:48:42.105Z,2.68
2022-12-15T04:51:28.208Z,2.69
2022-12-15T04:54:14.411Z,2.63
2022-12-15T04:57:00.075Z,2.54
2022-12-15T04:59:45.841Z,2.58
2022-12-15T05:02:31.727Z,2.60
2022-12-15T05:05:17.550Z,2.54
2022-12-15T05:08:03.799Z,2.61
2022-12-15T05:10:49.708Z,2.63
2022-12-15T05:13:35.741Z,2.72
2022-12-15T05:16:23.651Z,2.46
2022-12-15T05:19:09.872Z,2.37
2022-12-15T05:21:55.995Z,2.47
2022-12-15T05:24:41.999Z,2.52
2022-12-15T05:27:28.027Z,2.57
2022-12-15T05:30:13.762Z,2.50
2022-12-15T05:32:41.132Z,2.42
2022-12-15T05:35:08.612Z,2.62
2022-12-15T05:37:36.034Z,2.73
2022-12-15T05:40:06.958Z,2.81
2022-12-15T05:42:34.320Z,2.80
2022-12-15T05:45:01.792Z,2.73
2022-12-15T05:47:29.214Z,2.79
2022-12-15T05:49:56.644Z,2.77
2022-12-15T05:52:24.013Z,2.68
2022-12-15T05:54:51.653Z,2.66
2022-12-15T05:57:19.239Z,2.71
2022-12-15T05:59:46.698Z,2.64
2022-12-15T06:02:14.103Z,2.63
2022-12-15T06:04:41.736Z,2.62
2022-12-15T06:07:09.157Z,2.65
2022-12-15T06:09:38.347Z,2.64
2022-12-15T06:12:05.966Z,2.63
2022-12-15T06:14:33.449Z,2.72
2022-12-15T06:17:00.972Z,2.59
2022-12-15T06:19:28.405Z,2.77
2022-12-15T06:21:56.445Z,2.66
2022-12-15T06:24:24.773Z,2.77
2022-12-15T06:26:52.216Z,2.83
2022-12-15T06:29:19.571Z,2.83
2022-12-15T06:31:47.085Z,2.91
2022-12-15T06:34:16.336Z,2.95
2022-12-15T06:36:44.238Z,3.10
2022-12-15T06:39:14.194Z,3.11
2022-12-15T06:41:42.630Z,3.11
2022-12-15T06:44:15.034Z,3.10
2022-12-15T06:46:43.651Z,3.16
2022-12-15T06:49:11.309Z,3.13
2022-12-15T06:51:38.775Z,3.08
2022-12-15T06:54:11.201Z,3.16
2022-12-15T06:56:39.354Z,3.15
2022-12-15T06:59:08.557Z,3.28
2022-12-15T07:01:36.261Z,3.27
2022-12-15T07:04:05.618Z,3.25
2022-12-15T07:06:38.077Z,3.25
2022-12-15T07:09:08.163Z,3.15
2022-12-15T07:11:36.901Z,3.10
2022-12-15T07:14:04.969Z,3.08
2022-12-15T07:16:32.846Z,3.05
2022-12-15T07:19:00.297Z,3.23
2022-12-15T07:21:27.737Z,3.19
2022-12-15T07:23:56.583Z,3.29
2022-12-15T07:26:24.884Z,3.25
2022-12-15T07:28:53.767Z,3.17
2022-12-15T07:31:22.302Z,3.13
2022-12-15T07:33:52.443Z,3.29
2022-12-15T07:36:23.407Z,3.15
2022-12-15T07:38:51.739Z,3.18
2022-12-15T07:41:23.333Z,3.23
2022-12-15T07:43:50.838Z,3.15
2022-12-15T07:46:18.779Z,3.19
2022-12-15T07:48:50.862Z,3.35
2022-12-15T07:51:22.188Z,3.27
2022-12-15T07:53:50.737Z,3.15
2022-12-15T07:56:19.362Z,3.25
2022-12-15T07:58:46.935Z,3.19
2022-12-15T08:01:15.485Z,3.26
2022-12-15T08:03:43.349Z,3.27
2022-12-15T08:06:13.150Z,3.25
2022-12-15T08:08:41.382Z,3.36
2022-12-15T08:11:12.416Z,3.48
2022-12-15T08:16:34.623Z,3.71
2022-12-15T08:19:05.460Z,3.68
2022-12-15T08:21:33.899Z,3.52
2022-12-15T08:24:01.817Z,3.63
2022-12-15T08:26:30.991Z,3.79
2022-12-15T08:31:54.139Z,3.90
2022-12-15T08:34:22.081Z,3.88
2022-12-15T08:36:50.412Z,3.88
2022-12-15T08:39:18.108Z,3.79
2022-12-15T08:41:45.501Z,3.86
2022-12-15T08:44:13.084Z,3.95
2022-12-15T08:46:40.459Z,3.97
2022-12-15T08:49:08.789Z,3.96
2022-12-15T08:51:36.552Z,3.97
2022-12-15T08:54:04.131Z,4.09
2022-12-15T08:56:31.563Z,4.12
2022-12-15T08:59:02.425Z,4.16
2022-12-15T09:01:32.682Z,4.10
2022-12-15T09:04:01.495Z,4.15
2022-12-15T09:06:31.962Z,4.10
2022-12-15T09:09:04.314Z,4.13
2022-12-15T09:11:31.892Z,4.15
2022-12-15T09:13:59.432Z,4.07
2022-12-15T09:16:28.019Z,4.15
2022-12-15T09:18:58.282Z,4.12
2022-12-15T09:21:28.334Z,4.12
2022-12-15T09:24:00.544Z,4.18
2022-12-15T09:26:32.147Z,4.27
2022-12-15T09:29:00.382Z,4.28
2022-12-15T09:31:30.943Z,4.33
2022-12-15T09:34:00.469Z,4.18
2022-12-15T09:36:29.993Z,4.22
2022-12-15T09:38:57.409Z,4.42
2022-12-15T09:41:29.541Z,4.41
2022-12-15T09:44:13.387Z,4.55
2022-12-15T09:47:22.513Z,4.54
2022-12-15T09:49:57.327Z,4.46
2022-12-15T09:52:29.290Z,4.61
2022-12-15T09:54:58.904Z,4.65
2022-12-15T09:57:40.440Z,4.71
2022-12-15T10:00:21.728Z,4.52
2022-12-15T10:02:52.165Z,4.52
2022-12-15T10:06:07.360Z,4.61
2022-12-15T10:08:30.900Z,4.62
2022-12-15T10:11:04.618Z,4.66
2022-12-15T10:13:50.775Z,4.62
2022-12-15T10:16:24.249Z,4.87
2022-12-15T10:19:07.812Z,4.81
2022-12-15T10:21:36.768Z,4.90
2022-12-15T10:24:37.268Z,4.99
2022-12-15T10:27:20.674Z,5.18
2022-12-15T10:30:20.718Z,5.28
2022-12-15T10:33:09.384Z,5.27
2022-12-15T10:35:39.622Z,5.28
2022-12-15T10:38:37.914Z,5.14
2022-12-15T10:41:12.078Z,5.18
2022-12-15T10:43:42.022Z,5.08
2022-12-15T10:46:22.163Z,5.28
2022-12-15T10:48:51.749Z,5.01
2022-12-15T10:51:27.497Z,5.07
2022-12-15T10:54:06.732Z,5.03
2022-12-15T10:56:35.429Z,5.11
2022-12-15T10:59:27.986Z,5.11
2022-12-15T11:01:55.605Z,5.12
2022-12-15T11:04:31.568Z,5.05
2022-12-15T11:07:04.019Z,5.15
2022-12-15T11:09:36.169Z,5.26
2022-12-15T11:12:39.190Z,5.33
2022-12-15T11:15:21.759Z,5.33
2022-12-15T11:18:01.947Z,5.27
2022-12-15T11:20:35.494Z,5.39
2022-12-15T11:23:09.704Z,5.58
2022-12-15T11:25:43.050Z,5.41
2022-12-15T11:28:43.284Z,5.51
2022-12-15T11:31:36.894Z,5.40
2022-12-15T11:34:14.899Z,5.31
2022-12-15T11:36:51.457Z,5.41
2022-12-15T11:39:49.210Z,5.28
2022-12-15T11:42:49.966Z,5.25
2022-12-15T11:45:45.817Z,5.32
2022-12-15T11:48:47.664Z,5.38
2022-12-15T11:51:43.992Z,5.44
2022-12-15T11:54:24.906Z,5.48
2022-12-15T11:57:11.244Z,5.55
2022-12-15T12:00:01.911Z,5.36
2022-12-15T12:02:47.507Z,5.45
2022-12-15T12:06:01.089Z,5.36
2022-12-15T12:08:52.669Z,5.43
2022-12-15T12:11:32.211Z,5.42
2022-12-15T12:14:26.910Z,5.39
2022-12-15T12:17:06.698Z,5.50
2022-12-15T12:19:50.659Z,5.45
2022-12-15T12:22:24.500Z,5.62
2022-12-15T12:25:15.455Z,5.48
2022-12-15T12:27:58.631Z,5.62
2022-12-15T12:30:33.669Z,5.53
2022-12-15T12:33:27.340Z,5.52
2022-12-15T12:36:00.632Z,5.75
2022-12-15T12:38:37.279Z,5.68
2022-12-15T12:41:04.882Z,5.80
2022-12-15T12:44:22.462Z,5.70
2022-12-15T12:46:53.795Z,5.78
2022-12-15T12:49:26.885Z,5.81
2022-12-15T12:52:00.846Z,5.68
2022-12-15T12:54:31.289Z,5.74
2022-12-15T12:56:58.976Z,5.80
2022-12-15T12:59:29.096Z,5.81
2022-12-15T13:02:15.719Z,5.74
2022-12-15T13:04:50.090Z,5.75
2022-12-15T13:07:36.404Z,5.89
2022-12-15T13:10:20.067Z,5.98
2022-12-15T13:12:54.938Z,6.03
2022-12-15T13:15:31.511Z,5.87
2022-12-15T13:18:21.054Z,5.90
2022-12-15T13:20:50.969Z,5.92
2022-12-15T13:23:19.483Z,5.94
2022-12-15T13:25:55.975Z,5.99
2022-12-15T13:28:31.309Z,6.01
2022-12-15T13:31:17.607Z,5.97
2022-12-15T13:33:51.252Z,6.06
2022-12-15T13:36:36.837Z,6.03
2022-12-15T13:39:29.903Z,5.72
2022-12-15T13:44:55.048Z,5.63
2022-12-15T13:47:26.083Z,5.46
2022-12-15T13:50:02.819Z,5.31
2022-12-15T13:53:18.844Z,5.24
2022-12-15T13:55:52.642Z,5.16
2022-12-15T13:58:21.878Z,5.21
2022-12-15T14:00:58.039Z,5.11
2022-12-15T14:03:30.253Z,5.22
2022-12-15T14:06:00.198Z,5.14
2022-12-15T14:08:31.065Z,5.09
2022-12-15T14:13:54.153Z,5.09
2022-12-15T14:16:23.136Z,4.96
2022-12-15T14:19:13.610Z,4.92
2022-12-15T14:21:49.221Z,4.83
2022-12-15T14:27:25.163Z,4.62
2022-12-15T14:30:11.406Z,4.66
2022-12-15T14:32:39.602Z,4.49
2022-12-15T14:35:17.248Z,4.42
2022-12-15T14:37:45.815Z,4.38
2022-12-15T14:40:21.384Z,4.44
2022-12-15T14:42:54.914Z,4.53
2022-12-15T14:45:26.957Z,4.46
2022-12-15T14:50:48.231Z,4.36
2022-12-15T14:53:18.519Z,4.39
2022-12-15T14:55:46.469Z,4.31
2022-12-15T14:58:43.623Z,4.37
2022-12-15T15:01:41.436Z,4.29
2022-12-15T15:03:16.014Z,5.08
2022-12-15T15:04:32.547Z,4.45
2022-12-15T15:07:02.856Z,4.27
2022-12-15T15:09:33.550Z,4.40
2022-12-15T15:12:04.390Z,4.28
2022-12-15T15:14:44.101Z,4.31
2022-12-15T15:17:20.425Z,4.34
2022-12-15T15:19:54.994Z,4.39
2022-12-15T15:22:36.351Z,4.35
2022-12-15T15:25:39.975Z,4.35
2022-12-15T15:28:20.577Z,4.35
2022-12-15T15:30:56.355Z,4.37
2022-12-15T15:33:25.289Z,4.40
2022-12-15T15:35:58.245Z,4.39
2022-12-15T15:38:38.650Z,4.38
2022-12-15T15:41:21.157Z,4.40
2022-12-15T15:43:48.551Z,4.44
2022-12-15T15:46:19.766Z,4.42
2022-12-15T15:48:57.662Z,4.41
2022-12-15T15:51:30.204Z,4.36
2022-12-15T15:54:04.648Z,4.40
2022-12-15T15:56:32.089Z,4.43
2022-12-15T15:59:09.680Z,4.45
2022-12-15T16:01:37.055Z,4.49
2022-12-15T16:04:06.286Z,4.50
2022-12-15T16:06:34.155Z,4.49
2022-12-15T16:09:01.921Z,4.54
2022-12-15T16:11:33.283Z,4.51
2022-12-15T16:14:01.541Z,4.43
2022-12-15T16:16:32.232Z,4.45
2022-12-15T16:18:59.959Z,4.45
2022-12-15T16:21:27.920Z,4.41
2022-12-15T16:23:57.018Z,4.45
2022-12-15T16:26:29.942Z,4.43
2022-12-15T16:28:57.818Z,4.45
2022-12-15T16:31:37.186Z,4.48
2022-12-15T16:34:07.172Z,4.52
2022-12-15T16:36:35.211Z,4.54
2022-12-15T16:39:04.118Z,4.54
2022-12-15T16:41:31.535Z,4.54
2022-12-15T16:43:58.964Z,4.52
2022-12-15T16:46:26.772Z,4.49
2022-12-15T16:48:54.835Z,4.48
2022-12-15T16:51:39.422Z,4.50
2022-12-15T16:54:07.265Z,4.45
2022-12-15T16:56:34.800Z,4.50
2022-12-15T16:59:31.550Z,4.49
2022-12-15T17:01:50.810Z,4.56
2022-12-15T17:04:21.569Z,4.47
2022-12-15T17:06:49.338Z,4.44
2022-12-15T17:09:21.904Z,4.44
2022-12-15T17:11:52.076Z,4.31
2022-12-15T17:14:19.674Z,4.25
2022-12-15T17:16:47.077Z,4.28
2022-12-15T17:19:19.351Z,4.34
2022-12-15T17:21:52.383Z,4.44
2022-12-15T17:24:22.247Z,4.51
2022-12-15T17:26:50.561Z,4.46
2022-12-15T17:29:23.666Z,4.52
2022-12-15T17:31:51.643Z,4.46
2022-12-15T17:34:30.305Z,4.50
2022-12-15T17:36:59.676Z,4.57
2022-12-15T17:39:30.841Z,4.51
2022-12-15T17:42:00.413Z,4.44
2022-12-15T17:44:34.273Z,4.48
2022-12-15T17:47:05.405Z,4.48
2022-12-15T17:49:36.623Z,4.55
2022-12-15T17:52:28.068Z,4.58
2022-12-15T17:54:56.486Z,4.49
2022-12-15T17:57:24.359Z,4.46
2022-12-15T17:59:51.914Z,4.37
2022-12-15T18:02:19.867Z,4.30
2022-12-15T18:04:47.337Z,4.26
2022-12-15T18:07:22.800Z,4.22
2022-12-15T18:09:52.179Z,4.23
2022-12-15T18:12:25.043Z,4.31
2022-12-15T18:14:53.702Z,4.32
2022-12-15T18:17:21.653Z,4.21
2022-12-15T18:19:49.371Z,4.26
2022-12-15T18:22:22.376Z,4.25
2022-12-15T18:24:52.869Z,4.27
2022-12-15T18:27:29.095Z,4.27
2022-12-15T18:29:57.120Z,4.11
2022-12-15T18:32:27.073Z,4.08
2022-12-15T18:34:55.620Z,4.18
2022-12-15T18:37:24.962Z,4.16
2022-12-15T18:39:53.059Z,4.15
2022-12-15T18:42:22.944Z,4.25
2022-12-15T18:44:53.621Z,4.30
2022-12-15T18:47:23.379Z,4.34
2022-12-15T18:49:51.064Z,4.33
2022-12-15T18:52:20.998Z,4.26
2022-12-15T18:54:53.287Z,4.21
2022-12-15T18:57:32.678Z,4.22
2022-12-15T19:00:07.919Z,4.19
2022-12-15T19:02:35.537Z,4.23
2022-12-15T19:05:02.936Z,4.21
2022-12-15T19:07:30.622Z,4.24
2022-12-15T19:09:58.489Z,4.24
2022-12-15T19:12:25.853Z,4.34
2022-12-15T19:14:55.145Z,4.38
2022-12-15T19:17:42.599Z,4.39
2022-12-15T19:20:37.781Z,4.39
2022-12-15T19:23:06.878Z,4.36
2022-12-15T19:25:35.356Z,4.43
2022-12-15T19:28:02.962Z,4.47
2022-12-15T19:30:36.942Z,4.52
2022-12-15T19:33:10.096Z,4.59
2022-12-15T19:35:40.050Z,4.61
2022-12-15T19:38:08.416Z,4.54
2022-12-15T19:40:37.677Z,4.54
2022-12-15T19:43:05.565Z,4.55
2022-12-15T19:45:33.246Z,4.56
2022-12-15T19:48:00.892Z,4.57
2022-12-15T19:50:36.970Z,4.55
2022-12-15T19:53:26.085Z,4.57
2022-12-15T19:56:01.339Z,4.65
2022-12-15T19:58:30.092Z,4.53
2022-12-15T20:01:05.248Z,4.49
2022-12-15T20:03:33.810Z,4.46
2022-12-15T20:06:02.950Z,4.44
2022-12-15T20:08:35.492Z,4.40
2022-12-15T20:11:03.639Z,4.43
2022-12-15T20:13:31.649Z,4.43
2022-12-15T20:15:59.237Z,4.44
2022-12-15T20:18:26.584Z,4.40
2022-12-15T20:20:56.860Z,4.40
2022-12-15T20:23:26.609Z,4.51
2022-12-15T20:25:57.891Z,4.54
2022-12-15T20:28:28.347Z,4.46
2022-12-15T20:30:57.392Z,4.44
2022-12-15T20:33:24.866Z,4.41
2022-12-15T20:35:52.882Z,4.43
2022-12-15T20:38:33.563Z,4.39
2022-12-15T20:41:02.821Z,4.47
2022-12-15T20:43:32.547Z,4.54
2022-12-15T20:46:07.697Z,4.44
2022-12-15T20:48:38.437Z,4.55
2022-12-15T20:51:09.824Z,4.45
2022-12-15T20:53:38.625Z,4.39
2022-12-15T20:56:06.348Z,4.35
2022-12-15T20:58:41.870Z,4.35
2022-12-15T21:01:33.222Z,4.41
2022-12-15T21:04:03.620Z,4.18
2022-12-15T21:06:34.968Z,4.26
2022-12-15T21:09:02.811Z,4.16
2022-12-15T21:11:32.835Z,4.27
2022-12-15T21:14:04.211Z,4.30
2022-12-15T21:16:32.802Z,4.36
2022-12-15T21:19:19.705Z,4.22
2022-12-15T21:21:55.323Z,4.13
2022-12-15T21:24:25.658Z,4.21
2022-12-15T21:26:53.570Z,4.22
2022-12-15T21:29:24.632Z,4.20
2022-12-15T21:31:52.264Z,4.17
2022-12-15T21:34:19.591Z,4.25
2022-12-15T21:36:52.124Z,4.33
2022-12-15T21:39:26.800Z,4.33
2022-12-15T21:41:55.093Z,4.32
2022-12-15T21:44:22.616Z,4.41
2022-12-15T21:46:50.231Z,4.46
2022-12-15T21:49:20.537Z,4.46
2022-12-15T21:51:55.013Z,4.49
2022-12-15T21:54:30.598Z,4.45
2022-12-15T21:57:02.756Z,4.44
2022-12-15T21:59:32.219Z,4.46
2022-12-15T22:02:00.854Z,4.48
2022-12-15T22:04:36.561Z,4.48
2022-12-15T22:07:06.649Z,4.49
2022-12-15T22:09:34.026Z,4.50
2022-12-15T22:12:02.044Z,4.50
2022-12-15T22:14:33.300Z,4.51
2022-12-15T22:17:17.110Z,4.51
2022-12-15T22:19:44.863Z,4.56
2022-12-15T22:22:13.873Z,4.71
2022-12-15T22:24:41.460Z,4.70
2022-12-15T22:27:20.052Z,4.69
2022-12-15T22:29:50.958Z,4.77
2022-12-15T22:32:18.385Z,4.66
2022-12-15T22:34:45.758Z,4.60
2022-12-15T22:37:13.615Z,4.62
2022-12-15T22:39:40.992Z,4.69
2022-12-15T22:42:16.280Z,4.67
2022-12-15T22:44:45.240Z,4.70
2022-12-15T22:47:12.729Z,4.77
2022-12-15T22:49:41.007Z,4.71
2022-12-15T22:52:19.583Z,4.75
2022-12-15T22:55:06.093Z,4.72
2022-12-15T22:57:34.581Z,4.69
2022-12-15T23:00:08.076Z,4.73
2022-12-15T23:02:39.377Z,4.76
2022-12-15T23:05:07.810Z,4.75
2022-12-15T23:07:35.604Z,4.75
2022-12-15T23:10:22.339Z,4.74
2022-12-15T23:12:54.345Z,4.76
2022-12-15T23:15:42.498Z,4.79
2022-12-15T23:18:10.786Z,4.78
2022-12-15T23:20:38.172Z,4.79
2022-12-15T23:23:05.868Z,4.81
2022-12-15T23:25:33.337Z,4.76
2022-12-15T23:28:01.356Z,4.84
2022-12-15T23:30:29.092Z,4.92
2022-12-15T23:32:56.443Z,4.80
2022-12-15T23:35:23.864Z,4.81
2022-12-15T23:37:51.176Z,4.94
2022-12-15T23:40:22.404Z,4.93
2022-12-15T23:42:50.714Z,4.95
2022-12-15T23:45:21.048Z,5.00
2022-12-15T23:47:48.518Z,5.01
2022-12-15T23:50:15.908Z,4.90
2022-12-15T23:52:43.242Z,4.85
2022-12-15T23:55:11.170Z,5.12
2022-12-15T23:57:39.306Z,4.94
